PWSweather.com
Personal Weather Stations
Station Observations
DW6359
Southwest Cambria, Cambria, WI 53923

Southwest CambriaCambria, WI 53923

Lat: 43.541194, Lon: -89.11275

Elevation: 945

Station Type: Davis Vantage Pro2

http://home.centurytel.net/weathercambria/wxcambria.html

High Low Average
Temperature 36.8°F2.7°C 30.2°F-1.0°C 34.6°F1.4°C
Dew Point 33.9°F1.1°C 27.4°F-2.6°C 31.7°F-0.2°C
Winds 12.0 mph 19.3 kmh Calm Calm 4.0 mph E6.4 kmh E
Wind Gusts 20.0 mph32.2 kmh -- 2.0 mph3.2 kmh
Humidity 95% 88% 89%
Pressure 29.95 in1014.2 mb 29.54 in1000.3 mb -
Precipitation 0.60 in15.2 mm - -
Hour Temp Dew Point Humidity Winds Wind Gusts Pressure Precip Precip Rate Daily Precip Total
12:00 AM 35.5°F1.9°C 32.6°F0.3°C 89% 1.0 mph E1.6 kmh E -- 29.96 in1014.6 mb 0.01 in0.3 mm 0.00 in0.0 mm 0.06 in1.5 mm
12:05 AM 35.4°F1.9°C 32.5°F0.3°C 89% Calm Calm -- 29.96 in1014.6 mb 0.01 in0.3 mm 0.00 in0.0 mm 0.06 in1.5 mm
12:10 AM 35.4°F1.9°C 32.5°F0.3°C 89% Calm Calm -- 29.96 in1014.6 mb 0.01 in0.3 mm 0.00 in0.0 mm 0.06 in1.5 mm
12:15 AM 35.4°F1.9°C 32.5°F0.3°C 89% 1.0 mph ENE1.6 kmh ENE -- 29.96 in1014.6 mb 0.01 in0.3 mm 0.00 in0.0 mm 0.06 in1.5 mm
12:20 AM 35.4°F1.9°C 32.5°F0.3°C 89% Calm Calm -- 29.96 in1014.6 mb 0.01 in0.3 mm 0.00 in0.0 mm 0.06 in1.5 mm
12:25 AM 35.4°F1.9°C 32.5°F0.3°C 89% Calm Calm -- 29.96 in1014.6 mb 0.01 in0.3 mm 0.00 in0.0 mm 0.06 in1.5 mm
12:30 AM 35.5°F1.9°C 32.6°F0.3°C 89% Calm Calm -- 29.96 in1014.6 mb 0.01 in0.3 mm 0.00 in0.0 mm 0.06 in1.5 mm
12:35 AM 35.5°F1.9°C 32.6°F0.3°C 89% Calm Calm -- 29.96 in1014.6 mb 0.01 in0.3 mm 0.00 in0.0 mm 0.06 in1.5 mm
12:40 AM 35.5°F1.9°C 32.6°F0.3°C 89% Calm Calm 7.0 mph11.3 kmh 29.96 in1014.6 mb 0.01 in0.3 mm 0.00 in0.0 mm 0.06 in1.5 mm
12:45 AM 35.5°F1.9°C 32.6°F0.3°C 89% Calm Calm 7.0 mph11.3 kmh 29.96 in1014.6 mb 0.01 in0.3 mm 0.00 in0.0 mm 0.06 in1.5 mm
12:50 AM 35.5°F1.9°C 32.6°F0.3°C 89% Calm Calm -- 29.96 in1014.6 mb 0.00 in0.0 mm 0.00 in0.0 mm 0.06 in1.5 mm
12:55 AM 35.5°F1.9°C 32.6°F0.3°C 89% 2.0 mph NE3.2 kmh NE -- 29.95 in1014.2 mb 0.00 in0.0 mm 0.00 in0.0 mm 0.06 in1.5 mm
01:00 AM 35.5°F1.9°C 32.6°F0.3°C 89% 6.0 mph NNE9.7 kmh NNE -- 29.95 in1014.2 mb 0.00 in0.0 mm 0.00 in0.0 mm 0.01 in0.3 mm
01:05 AM 35.5°F1.9°C 32.6°F0.3°C 89% 5.0 mph E8.0 kmh E -- 29.95 in1014.2 mb 0.00 in0.0 mm 0.00 in0.0 mm 0.01 in0.3 mm
01:10 AM 35.5°F1.9°C 32.6°F0.3°C 89% 2.0 mph E3.2 kmh E -- 29.95 in1014.2 mb 0.00 in0.0 mm 0.00 in0.0 mm 0.01 in0.3 mm
01:15 AM 35.5°F1.9°C 32.6°F0.3°C 89% 2.0 mph NE3.2 kmh NE -- 29.95 in1014.2 mb 0.01 in0.3 mm 0.12 in3.0 mm 0.01 in0.3 mm
01:20 AM 35.5°F1.9°C 32.6°F0.3°C 89% 1.0 mph E1.6 kmh E -- 29.95 in1014.2 mb 0.01 in0.3 mm 0.00 in0.0 mm 0.01 in0.3 mm
01:25 AM 35.5°F1.9°C 32.6°F0.3°C 89% Calm Calm -- 29.94 in1013.9 mb 0.01 in0.3 mm 0.00 in0.0 mm 0.01 in0.3 mm
01:30 AM 35.5°F1.9°C 32.6°F0.3°C 89% Calm Calm 6.0 mph9.7 kmh 29.94 in1013.9 mb 0.01 in0.3 mm 0.00 in0.0 mm 0.01 in0.3 mm
01:35 AM 35.5°F1.9°C 32.6°F0.3°C 89% Calm Calm 6.0 mph9.7 kmh 29.94 in1013.9 mb 0.01 in0.3 mm 0.00 in0.0 mm 0.01 in0.3 mm
01:40 AM 35.5°F1.9°C 32.6°F0.3°C 89% 2.0 mph NNE3.2 kmh NNE -- 29.94 in1013.9 mb 0.01 in0.3 mm 0.00 in0.0 mm 0.01 in0.3 mm
01:45 AM 35.5°F1.9°C 32.6°F0.3°C 89% Calm Calm -- 29.94 in1013.9 mb 0.01 in0.3 mm 0.00 in0.0 mm 0.01 in0.3 mm
01:50 AM 35.5°F1.9°C 32.6°F0.3°C 89% 2.0 mph E3.2 kmh E -- 29.94 in1013.9 mb 0.01 in0.3 mm 0.00 in0.0 mm 0.01 in0.3 mm
01:55 AM 35.5°F1.9°C 32.6°F0.3°C 89% 2.0 mph ENE3.2 kmh ENE -- 29.93 in1013.5 mb 0.01 in0.3 mm 0.00 in0.0 mm 0.01 in0.3 mm
02:00 AM 35.5°F1.9°C 32.6°F0.3°C 89% Calm Calm -- 29.93 in1013.5 mb 0.02 in0.5 mm 0.01 in0.3 mm 0.02 in0.5 mm
02:05 AM 35.5°F1.9°C 32.6°F0.3°C 89% Calm Calm -- 29.92 in1013.2 mb 0.02 in0.5 mm 0.00 in0.0 mm 0.02 in0.5 mm
02:10 AM 35.4°F1.9°C 32.5°F0.3°C 89% Calm Calm -- 29.92 in1013.2 mb 0.03 in0.8 mm 0.12 in3.0 mm 0.03 in0.8 mm
02:15 AM 35.4°F1.9°C 32.5°F0.3°C 89% Calm Calm -- 29.92 in1013.2 mb 0.02 in0.5 mm 0.00 in0.0 mm 0.03 in0.8 mm
02:20 AM 35.4°F1.9°C 32.5°F0.3°C 89% Calm Calm 1.0 mph1.6 kmh 29.92 in1013.2 mb 0.03 in0.8 mm 0.12 in3.0 mm 0.04 in1.0 mm
02:25 AM 35.4°F1.9°C 32.5°F0.3°C 89% 4.0 mph NNE6.4 kmh NNE 1.0 mph1.6 kmh 29.91 in1012.9 mb 0.03 in0.8 mm 0.00 in0.0 mm 0.04 in1.0 mm
02:30 AM 35.4°F1.9°C 32.5°F0.3°C 89% 1.0 mph ENE1.6 kmh ENE -- 29.91 in1012.9 mb 0.03 in0.8 mm 0.00 in0.0 mm 0.04 in1.0 mm
02:35 AM 35.4°F1.9°C 32.5°F0.3°C 89% 2.0 mph ENE3.2 kmh ENE -- 29.91 in1012.9 mb 0.03 in0.8 mm 0.00 in0.0 mm 0.04 in1.0 mm
02:40 AM 35.4°F1.9°C 32.5°F0.3°C 89% 1.0 mph E1.6 kmh E -- 29.91 in1012.9 mb 0.03 in0.8 mm 0.00 in0.0 mm 0.04 in1.0 mm
02:45 AM 35.4°F1.9°C 32.5°F0.3°C 89% 5.0 mph NE8.0 kmh NE -- 29.91 in1012.9 mb 0.03 in0.8 mm 0.00 in0.0 mm 0.04 in1.0 mm
02:50 AM 35.5°F1.9°C 32.6°F0.3°C 89% 2.0 mph E3.2 kmh E -- 29.91 in1012.9 mb 0.03 in0.8 mm 0.00 in0.0 mm 0.04 in1.0 mm
02:55 AM 35.5°F1.9°C 32.6°F0.3°C 89% Calm Calm -- 29.91 in1012.9 mb 0.03 in0.8 mm 0.00 in0.0 mm 0.04 in1.0 mm
03:00 AM 35.5°F1.9°C 32.6°F0.3°C 89% 3.0 mph ENE4.8 kmh ENE -- 29.90 in1012.5 mb 0.02 in0.5 mm 0.00 in0.0 mm 0.04 in1.0 mm
03:05 AM 35.5°F1.9°C 32.6°F0.3°C 89% 3.0 mph NE4.8 kmh NE -- 29.90 in1012.5 mb 0.02 in0.5 mm 0.00 in0.0 mm 0.04 in1.0 mm
03:10 AM 35.6°F2.0°C 32.7°F0.4°C 89% 2.0 mph ENE3.2 kmh ENE 8.0 mph12.9 kmh 29.90 in1012.5 mb 0.01 in0.3 mm 0.00 in0.0 mm 0.04 in1.0 mm
03:15 AM 35.7°F2.1°C 32.8°F0.4°C 89% 4.0 mph NE6.4 kmh NE 8.0 mph12.9 kmh 29.90 in1012.5 mb 0.01 in0.3 mm 0.00 in0.0 mm 0.04 in1.0 mm
03:20 AM 35.7°F2.1°C 32.8°F0.4°C 89% Calm Calm -- 29.90 in1012.5 mb 0.00 in0.0 mm 0.00 in0.0 mm 0.04 in1.0 mm
03:25 AM 35.7°F2.1°C 32.8°F0.4°C 89% Calm Calm -- 29.90 in1012.5 mb 0.01 in0.3 mm 0.12 in3.0 mm 0.05 in1.3 mm
03:30 AM 35.7°F2.1°C 32.8°F0.4°C 89% Calm Calm -- 29.90 in1012.5 mb 0.01 in0.3 mm 0.00 in0.0 mm 0.05 in1.3 mm
03:35 AM 35.7°F2.1°C 32.8°F0.4°C 89% 2.0 mph E3.2 kmh E -- 29.90 in1012.5 mb 0.01 in0.3 mm 0.00 in0.0 mm 0.05 in1.3 mm
03:40 AM 35.7°F2.1°C 32.8°F0.4°C 89% 2.0 mph E3.2 kmh E -- 29.90 in1012.5 mb 0.01 in0.3 mm 0.00 in0.0 mm 0.05 in1.3 mm
03:45 AM 35.7°F2.1°C 32.8°F0.4°C 89% 2.0 mph NE3.2 kmh NE -- 29.90 in1012.5 mb 0.01 in0.3 mm 0.00 in0.0 mm 0.05 in1.3 mm
03:50 AM 35.7°F2.1°C 32.8°F0.4°C 89% Calm Calm -- 29.90 in1012.5 mb 0.01 in0.3 mm 0.00 in0.0 mm 0.05 in1.3 mm
03:55 AM 35.7°F2.1°C 32.8°F0.4°C 89% 4.0 mph ESE6.4 kmh ESE -- 29.89 in1012.2 mb 0.01 in0.3 mm 0.00 in0.0 mm 0.05 in1.3 mm
04:00 AM 35.7°F2.1°C 32.8°F0.4°C 89% 4.0 mph NE6.4 kmh NE 8.0 mph12.9 kmh 29.89 in1012.2 mb 0.02 in0.5 mm 0.01 in0.3 mm 0.06 in1.5 mm
04:05 AM 35.7°F2.1°C 32.8°F0.4°C 89% 4.0 mph NE6.4 kmh NE 8.0 mph12.9 kmh 29.89 in1012.2 mb 0.02 in0.5 mm 0.00 in0.0 mm 0.06 in1.5 mm
04:10 AM 35.6°F2.0°C 32.7°F0.4°C 89% 4.0 mph ENE6.4 kmh ENE -- 29.88 in1011.9 mb 0.03 in0.8 mm 0.12 in3.0 mm 0.07 in1.8 mm
04:15 AM 35.6°F2.0°C 32.7°F0.4°C 89% 3.0 mph ENE4.8 kmh ENE -- 29.89 in1012.2 mb 0.03 in0.8 mm 0.00 in0.0 mm 0.07 in1.8 mm
04:20 AM 35.6°F2.0°C 32.7°F0.4°C 89% 2.0 mph NE3.2 kmh NE -- 29.88 in1011.9 mb 0.04 in1.0 mm 0.12 in3.0 mm 0.08 in2.0 mm
04:25 AM 35.4°F1.9°C 32.5°F0.3°C 89% 2.0 mph NE3.2 kmh NE -- 29.89 in1012.2 mb 0.03 in0.8 mm 0.00 in0.0 mm 0.08 in2.0 mm
04:30 AM 35.1°F1.7°C 32.2°F0.1°C 89% 6.0 mph NE9.7 kmh NE -- 29.88 in1011.9 mb 0.03 in0.8 mm 0.00 in0.0 mm 0.08 in2.0 mm
04:35 AM 34.9°F1.6°C 32.0°F0.0°C 89% 5.0 mph NNE8.0 kmh NNE -- 29.88 in1011.9 mb 0.04 in1.0 mm 0.12 in3.0 mm 0.09 in2.3 mm
04:40 AM 34.8°F1.6°C 31.9°F-0.1°C 89% 2.0 mph NE3.2 kmh NE -- 29.87 in1011.5 mb 0.04 in1.0 mm 0.00 in0.0 mm 0.09 in2.3 mm
04:45 AM 34.7°F1.5°C 31.8°F-0.1°C 89% 10.0 mph NE16.1 kmh NE -- 29.87 in1011.5 mb 0.05 in1.3 mm 0.12 in3.0 mm 0.10 in2.5 mm
04:50 AM 34.6°F1.4°C 31.7°F-0.2°C 89% 8.0 mph E12.9 kmh E 15.0 mph24.1 kmh 29.86 in1011.2 mb 0.05 in1.3 mm 0.00 in0.0 mm 0.10 in2.5 mm
04:55 AM 34.6°F1.4°C 31.7°F-0.2°C 89% 7.0 mph NE11.3 kmh NE 15.0 mph24.1 kmh 29.86 in1011.2 mb 0.06 in1.5 mm 0.12 in3.0 mm 0.11 in2.8 mm
05:00 AM 34.5°F1.4°C 31.6°F-0.2°C 89% 3.0 mph ENE4.8 kmh ENE -- 29.86 in1011.2 mb 0.05 in1.3 mm 0.00 in0.0 mm 0.11 in2.8 mm
05:05 AM 34.5°F1.4°C 31.6°F-0.2°C 89% 3.0 mph NE4.8 kmh NE -- 29.85 in1010.8 mb 0.06 in1.5 mm 0.12 in3.0 mm 0.12 in3.0 mm
05:10 AM 34.4°F1.3°C 31.5°F-0.3°C 89% 2.0 mph NE3.2 kmh NE -- 29.85 in1010.8 mb 0.05 in1.3 mm 0.00 in0.0 mm 0.12 in3.0 mm
05:15 AM 34.5°F1.4°C 31.6°F-0.2°C 89% Calm Calm -- 29.85 in1010.8 mb 0.05 in1.3 mm 0.00 in0.0 mm 0.12 in3.0 mm
05:20 AM 34.6°F1.4°C 31.7°F-0.2°C 89% 2.0 mph E3.2 kmh E -- 29.84 in1010.5 mb 0.05 in1.3 mm 0.00 in0.0 mm 0.13 in3.3 mm
05:25 AM 34.6°F1.4°C 31.7°F-0.2°C 89% 3.0 mph E4.8 kmh E -- 29.84 in1010.5 mb 0.05 in1.3 mm 0.00 in0.0 mm 0.13 in3.3 mm
05:30 AM 34.7°F1.5°C 31.8°F-0.1°C 89% 7.0 mph NE11.3 kmh NE -- 29.84 in1010.5 mb 0.06 in1.5 mm 0.12 in3.0 mm 0.14 in3.6 mm
05:35 AM 34.8°F1.6°C 31.9°F-0.1°C 89% 3.0 mph ENE4.8 kmh ENE -- 29.83 in1010.2 mb 0.05 in1.3 mm 0.00 in0.0 mm 0.14 in3.6 mm
05:40 AM 34.7°F1.5°C 31.8°F-0.1°C 89% 5.0 mph ENE8.0 kmh ENE 15.0 mph24.1 kmh 29.82 in1009.8 mb 0.06 in1.5 mm 0.12 in3.0 mm 0.15 in3.8 mm
05:45 AM 34.8°F1.6°C 31.9°F-0.1°C 89% 5.0 mph NE8.0 kmh NE 15.0 mph24.1 kmh 29.82 in1009.8 mb 0.05 in1.3 mm 0.00 in0.0 mm 0.15 in3.8 mm
05:50 AM 34.7°F1.5°C 31.8°F-0.1°C 89% Calm Calm -- 29.82 in1009.8 mb 0.05 in1.3 mm 0.00 in0.0 mm 0.15 in3.8 mm
05:55 AM 34.7°F1.5°C 31.8°F-0.1°C 89% 4.0 mph NE6.4 kmh NE -- 29.82 in1009.8 mb 0.05 in1.3 mm 0.00 in0.0 mm 0.16 in4.1 mm
06:00 AM 34.8°F1.6°C 31.9°F-0.1°C 89% 2.0 mph ENE3.2 kmh ENE -- 29.82 in1009.8 mb 0.05 in1.3 mm 0.00 in0.0 mm 0.16 in4.1 mm
06:05 AM 34.9°F1.6°C 32.0°F0.0°C 89% 3.0 mph E4.8 kmh E -- 29.82 in1009.8 mb 0.06 in1.5 mm 0.12 in3.0 mm 0.17 in4.3 mm
06:10 AM 35.0°F1.7°C 32.1°F0.1°C 89% 8.0 mph ENE12.9 kmh ENE -- 29.81 in1009.5 mb 0.05 in1.3 mm 0.00 in0.0 mm 0.17 in4.3 mm
06:15 AM 35.2°F1.8°C 32.3°F0.2°C 89% 5.0 mph NE8.0 kmh NE -- 29.80 in1009.1 mb 0.06 in1.5 mm 0.12 in3.0 mm 0.18 in4.6 mm
06:20 AM 35.2°F1.8°C 32.3°F0.2°C 89% 4.0 mph SE6.4 kmh SE -- 29.80 in1009.1 mb 0.05 in1.3 mm 0.00 in0.0 mm 0.18 in4.6 mm
06:25 AM 35.3°F1.8°C 32.4°F0.2°C 89% 3.0 mph E4.8 kmh E -- 29.81 in1009.5 mb 0.06 in1.5 mm 0.12 in3.0 mm 0.19 in4.8 mm
06:30 AM 35.3°F1.8°C 32.4°F0.2°C 89% 7.0 mph NE11.3 kmh NE 13.0 mph20.9 kmh 29.82 in1009.8 mb 0.05 in1.3 mm 0.00 in0.0 mm 0.19 in4.8 mm
06:35 AM 35.4°F1.9°C 32.5°F0.3°C 89% 4.0 mph ENE6.4 kmh ENE 13.0 mph20.9 kmh 29.81 in1009.5 mb 0.05 in1.3 mm 0.00 in0.0 mm 0.19 in4.8 mm
06:40 AM 35.5°F1.9°C 32.6°F0.3°C 89% 2.0 mph NE3.2 kmh NE -- 29.80 in1009.1 mb 0.05 in1.3 mm 0.00 in0.0 mm 0.20 in5.1 mm
06:45 AM 35.5°F1.9°C 32.6°F0.3°C 89% 4.0 mph NE6.4 kmh NE -- 29.80 in1009.1 mb 0.05 in1.3 mm 0.00 in0.0 mm 0.20 in5.1 mm
06:50 AM 35.6°F2.0°C 32.7°F0.4°C 89% 3.0 mph ENE4.8 kmh ENE -- 29.80 in1009.1 mb 0.06 in1.5 mm 0.12 in3.0 mm 0.21 in5.3 mm
06:55 AM 35.6°F2.0°C 32.7°F0.4°C 89% 3.0 mph ENE4.8 kmh ENE -- 29.79 in1008.8 mb 0.05 in1.3 mm 0.00 in0.0 mm 0.21 in5.3 mm
07:00 AM 35.6°F2.0°C 32.7°F0.4°C 89% 4.0 mph ESE6.4 kmh ESE -- 29.78 in1008.5 mb 0.06 in1.5 mm 0.01 in0.3 mm 0.22 in5.6 mm
07:05 AM 35.7°F2.1°C 32.8°F0.4°C 89% 3.0 mph E4.8 kmh E -- 29.79 in1008.8 mb 0.05 in1.3 mm 0.00 in0.0 mm 0.22 in5.6 mm
07:10 AM 35.7°F2.1°C 32.8°F0.4°C 89% Calm Calm -- 29.78 in1008.5 mb 0.05 in1.3 mm 0.00 in0.0 mm 0.22 in5.6 mm
07:15 AM 35.7°F2.1°C 32.8°F0.4°C 89% 2.0 mph E3.2 kmh E -- 29.78 in1008.5 mb 0.05 in1.3 mm 0.00 in0.0 mm 0.23 in5.8 mm
07:20 AM 35.7°F2.1°C 32.8°F0.4°C 89% 2.0 mph SE3.2 kmh SE 9.0 mph14.5 kmh 29.77 in1008.1 mb 0.05 in1.3 mm 0.00 in0.0 mm 0.23 in5.8 mm
07:25 AM 35.7°F2.1°C 32.8°F0.4°C 89% 5.0 mph NE8.0 kmh NE 9.0 mph14.5 kmh 29.77 in1008.1 mb 0.05 in1.3 mm 0.00 in0.0 mm 0.24 in6.1 mm
07:30 AM 35.8°F2.1°C 32.9°F0.5°C 89% 7.0 mph E11.3 kmh E -- 29.77 in1008.1 mb 0.05 in1.3 mm 0.00 in0.0 mm 0.24 in6.1 mm
07:35 AM 35.9°F2.2°C 33.0°F0.6°C 89% 1.0 mph ENE1.6 kmh ENE -- 29.76 in1007.8 mb 0.05 in1.3 mm 0.00 in0.0 mm 0.24 in6.1 mm
07:40 AM 35.9°F2.2°C 33.0°F0.6°C 89% 1.0 mph ENE1.6 kmh ENE -- 29.77 in1008.1 mb 0.05 in1.3 mm 0.00 in0.0 mm 0.25 in6.4 mm
07:45 AM 36.0°F2.2°C 33.1°F0.6°C 89% 2.0 mph NE3.2 kmh NE -- 29.76 in1007.8 mb 0.05 in1.3 mm 0.00 in0.0 mm 0.25 in6.4 mm
07:50 AM 35.9°F2.2°C 33.0°F0.6°C 89% 10.0 mph E16.1 kmh E -- 29.76 in1007.8 mb 0.05 in1.3 mm 0.00 in0.0 mm 0.26 in6.6 mm
07:55 AM 35.9°F2.2°C 33.0°F0.6°C 89% 3.0 mph NE4.8 kmh NE -- 29.76 in1007.8 mb 0.05 in1.3 mm 0.00 in0.0 mm 0.26 in6.6 mm
08:00 AM 35.9°F2.2°C 33.0°F0.6°C 89% 3.0 mph E4.8 kmh E -- 29.76 in1007.8 mb 0.04 in1.0 mm 0.00 in0.0 mm 0.26 in6.6 mm
08:05 AM 35.9°F2.2°C 33.0°F0.6°C 89% 2.0 mph ENE3.2 kmh ENE -- 29.76 in1007.8 mb 0.05 in1.3 mm 0.12 in3.0 mm 0.27 in6.9 mm
08:10 AM 35.8°F2.1°C 32.9°F0.5°C 89% 8.0 mph ENE12.9 kmh ENE 9.0 mph14.5 kmh 29.76 in1007.8 mb 0.05 in1.3 mm 0.00 in0.0 mm 0.27 in6.9 mm
08:15 AM 35.8°F2.1°C 32.9°F0.5°C 89% 6.0 mph E9.7 kmh E 9.0 mph14.5 kmh 29.76 in1007.8 mb 0.04 in1.0 mm 0.00 in0.0 mm 0.27 in6.9 mm
08:20 AM 35.8°F2.1°C 32.9°F0.5°C 89% 2.0 mph E3.2 kmh E -- 29.77 in1008.1 mb 0.05 in1.3 mm 0.12 in3.0 mm 0.28 in7.1 mm
08:25 AM 35.8°F2.1°C 32.9°F0.5°C 89% Calm Calm -- 29.78 in1008.5 mb 0.04 in1.0 mm 0.00 in0.0 mm 0.28 in7.1 mm
08:30 AM 35.8°F2.1°C 32.9°F0.5°C 89% 1.0 mph E1.6 kmh E -- 29.78 in1008.5 mb 0.04 in1.0 mm 0.00 in0.0 mm 0.28 in7.1 mm
08:35 AM 35.7°F2.1°C 32.8°F0.4°C 89% 2.0 mph NE3.2 kmh NE -- 29.77 in1008.1 mb 0.05 in1.3 mm 0.12 in3.0 mm 0.29 in7.4 mm
08:40 AM 35.7°F2.1°C 32.8°F0.4°C 89% Calm Calm -- 29.76 in1007.8 mb 0.04 in1.0 mm 0.00 in0.0 mm 0.29 in7.4 mm
08:45 AM 35.6°F2.0°C 32.7°F0.4°C 89% 4.0 mph NE6.4 kmh NE -- 29.76 in1007.8 mb 0.05 in1.3 mm 0.12 in3.0 mm 0.30 in7.6 mm
08:50 AM 35.6°F2.0°C 32.7°F0.4°C 89% 2.0 mph E3.2 kmh E -- 29.75 in1007.5 mb 0.04 in1.0 mm 0.00 in0.0 mm 0.30 in7.6 mm
08:55 AM 35.6°F2.0°C 32.7°F0.4°C 89% 5.0 mph ENE8.0 kmh ENE -- 29.73 in1006.8 mb 0.04 in1.0 mm 0.00 in0.0 mm 0.30 in7.6 mm
09:00 AM 35.6°F2.0°C 32.7°F0.4°C 89% 8.0 mph E12.9 kmh E 8.0 mph12.9 kmh 29.71 in1006.1 mb 0.05 in1.3 mm 0.01 in0.3 mm 0.31 in7.9 mm
09:05 AM 35.7°F2.1°C 32.8°F0.4°C 89% 7.0 mph E11.3 kmh E 8.0 mph12.9 kmh 29.68 in1005.1 mb 0.04 in1.0 mm 0.00 in0.0 mm 0.31 in7.9 mm
09:10 AM 35.8°F2.1°C 32.9°F0.5°C 89% 12.0 mph ENE19.3 kmh ENE -- 29.65 in1004.1 mb 0.04 in1.0 mm 0.00 in0.0 mm 0.31 in7.9 mm
09:15 AM 35.9°F2.2°C 33.0°F0.6°C 89% 9.0 mph ENE14.5 kmh ENE -- 29.63 in1003.4 mb 0.05 in1.3 mm 0.12 in3.0 mm 0.32 in8.1 mm
09:20 AM 36.0°F2.2°C 33.1°F0.6°C 89% 1.0 mph E1.6 kmh E -- 29.66 in1004.4 mb 0.04 in1.0 mm 0.00 in0.0 mm 0.32 in8.1 mm
09:25 AM 36.1°F2.3°C 33.2°F0.7°C 89% 6.0 mph NNW9.7 kmh NNW -- 29.69 in1005.4 mb 0.05 in1.3 mm 0.12 in3.0 mm 0.33 in8.4 mm
09:30 AM 36.1°F2.3°C 33.2°F0.7°C 89% 6.0 mph N9.7 kmh N -- 29.70 in1005.8 mb 0.05 in1.3 mm 0.00 in0.0 mm 0.33 in8.4 mm
09:35 AM 35.9°F2.2°C 33.0°F0.6°C 89% 7.0 mph NNE11.3 kmh NNE -- 29.69 in1005.4 mb 0.04 in1.0 mm 0.00 in0.0 mm 0.33 in8.4 mm
09:40 AM 35.9°F2.2°C 33.0°F0.6°C 89% 7.0 mph N11.3 kmh N -- 29.68 in1005.1 mb 0.05 in1.3 mm 0.12 in3.0 mm 0.34 in8.6 mm
09:45 AM 36.1°F2.3°C 33.2°F0.7°C 89% 11.0 mph NNE17.7 kmh NNE -- 29.68 in1005.1 mb 0.04 in1.0 mm 0.00 in0.0 mm 0.34 in8.6 mm
09:50 AM 36.4°F2.4°C 33.5°F0.8°C 89% 11.0 mph N17.7 kmh N 20.0 mph32.2 kmh 29.68 in1005.1 mb 0.05 in1.3 mm 0.12 in3.0 mm 0.35 in8.9 mm
09:55 AM 36.4°F2.4°C 33.5°F0.8°C 89% 11.0 mph ENE17.7 kmh ENE 20.0 mph32.2 kmh 29.64 in1003.7 mb 0.05 in1.3 mm 0.00 in0.0 mm 0.35 in8.9 mm
10:00 AM 36.3°F2.4°C 33.4°F0.8°C 89% 7.0 mph ESE11.3 kmh ESE -- 29.62 in1003.0 mb 0.04 in1.0 mm 0.00 in0.0 mm 0.35 in8.9 mm
10:05 AM 36.3°F2.4°C 33.4°F0.8°C 89% 4.0 mph NE6.4 kmh NE -- 29.62 in1003.0 mb 0.05 in1.3 mm 0.12 in3.0 mm 0.36 in9.1 mm
10:10 AM 36.4°F2.4°C 33.5°F0.8°C 89% 3.0 mph E4.8 kmh E -- 29.63 in1003.4 mb 0.05 in1.3 mm 0.00 in0.0 mm 0.36 in9.1 mm
10:15 AM 36.4°F2.4°C 33.5°F0.8°C 89% 5.0 mph E8.0 kmh E -- 29.62 in1003.0 mb 0.05 in1.3 mm 0.00 in0.0 mm 0.37 in9.4 mm
10:20 AM 36.5°F2.5°C 33.6°F0.9°C 89% 2.0 mph E3.2 kmh E -- 29.61 in1002.7 mb 0.05 in1.3 mm 0.00 in0.0 mm 0.37 in9.4 mm
10:25 AM 36.5°F2.5°C 33.6°F0.9°C 89% 6.0 mph N9.7 kmh N -- 29.62 in1003.0 mb 0.04 in1.0 mm 0.00 in0.0 mm 0.37 in9.4 mm
10:30 AM 36.4°F2.4°C 33.5°F0.8°C 89% 6.0 mph NE9.7 kmh NE -- 29.62 in1003.0 mb 0.05 in1.3 mm 0.12 in3.0 mm 0.38 in9.7 mm
10:35 AM 36.6°F2.6°C 33.7°F0.9°C 89% 2.0 mph ENE3.2 kmh ENE -- 29.67 in1004.7 mb 0.05 in1.3 mm 0.00 in0.0 mm 0.38 in9.7 mm
10:40 AM 36.6°F2.6°C 33.7°F0.9°C 89% Calm Calm 15.0 mph24.1 kmh 29.71 in1006.1 mb 0.04 in1.0 mm 0.00 in0.0 mm 0.38 in9.7 mm
10:45 AM 36.7°F2.6°C 33.8°F1.0°C 89% Calm Calm 15.0 mph24.1 kmh 29.71 in1006.1 mb 0.04 in1.0 mm 0.00 in0.0 mm 0.38 in9.7 mm
10:50 AM 36.7°F2.6°C 33.8°F1.0°C 89% Calm Calm -- 29.71 in1006.1 mb 0.04 in1.0 mm 0.00 in0.0 mm 0.39 in9.9 mm
10:55 AM 36.7°F2.6°C 33.8°F1.0°C 89% Calm Calm -- 29.72 in1006.4 mb 0.04 in1.0 mm 0.00 in0.0 mm 0.39 in9.9 mm
11:00 AM 36.8°F2.7°C 33.9°F1.1°C 89% Calm Calm -- 29.71 in1006.1 mb 0.04 in1.0 mm 0.00 in0.0 mm 0.39 in9.9 mm
11:05 AM 36.8°F2.7°C 33.9°F1.1°C 89% Calm Calm -- 29.72 in1006.4 mb 0.04 in1.0 mm 0.00 in0.0 mm 0.40 in10.2 mm
11:10 AM 36.8°F2.7°C 33.9°F1.1°C 89% Calm Calm -- 29.71 in1006.1 mb 0.04 in1.0 mm 0.00 in0.0 mm 0.40 in10.2 mm
11:15 AM 36.8°F2.7°C 33.6°F0.9°C 88% Calm Calm -- 29.71 in1006.1 mb 0.03 in0.8 mm 0.00 in0.0 mm 0.40 in10.2 mm
11:20 AM 36.7°F2.6°C 33.5°F0.8°C 88% Calm Calm -- 29.71 in1006.1 mb 0.04 in1.0 mm 0.12 in3.0 mm 0.41 in10.4 mm
11:25 AM 36.6°F2.6°C 33.4°F0.8°C 88% Calm Calm -- 29.70 in1005.8 mb 0.04 in1.0 mm 0.00 in0.0 mm 0.41 in10.4 mm
11:30 AM 36.6°F2.6°C 33.7°F0.9°C 89% Calm Calm 1.0 mph1.6 kmh 29.70 in1005.8 mb 0.03 in0.8 mm 0.00 in0.0 mm 0.41 in10.4 mm
11:35 AM 36.5°F2.5°C 33.6°F0.9°C 89% Calm Calm 1.0 mph1.6 kmh 29.70 in1005.8 mb 0.03 in0.8 mm 0.00 in0.0 mm 0.41 in10.4 mm
11:40 AM 36.5°F2.5°C 33.6°F0.9°C 89% Calm Calm -- 29.69 in1005.4 mb 0.04 in1.0 mm 0.12 in3.0 mm 0.42 in10.7 mm
11:45 AM 36.4°F2.4°C 33.5°F0.8°C 89% Calm Calm -- 29.68 in1005.1 mb 0.04 in1.0 mm 0.00 in0.0 mm 0.42 in10.7 mm
11:50 AM 36.4°F2.4°C 33.5°F0.8°C 89% Calm Calm -- 29.68 in1005.1 mb 0.03 in0.8 mm 0.00 in0.0 mm 0.42 in10.7 mm
11:55 AM 36.4°F2.4°C 33.5°F0.8°C 89% 4.0 mph NE6.4 kmh NE -- 29.68 in1005.1 mb 0.04 in1.0 mm 0.12 in3.0 mm 0.43 in10.9 mm
12:00 PM 36.4°F2.4°C 33.5°F0.8°C 89% 5.0 mph NE8.0 kmh NE -- 29.67 in1004.7 mb 0.04 in1.0 mm 0.00 in0.0 mm 0.43 in10.9 mm
12:05 PM 36.4°F2.4°C 33.5°F0.8°C 89% 2.0 mph NNE3.2 kmh NNE -- 29.66 in1004.4 mb 0.03 in0.8 mm 0.00 in0.0 mm 0.43 in10.9 mm
12:10 PM 36.5°F2.5°C 33.6°F0.9°C 89% 3.0 mph N4.8 kmh N -- 29.66 in1004.4 mb 0.03 in0.8 mm 0.00 in0.0 mm 0.43 in10.9 mm
12:15 PM 36.6°F2.6°C 33.7°F0.9°C 89% 6.0 mph NE9.7 kmh NE -- 29.66 in1004.4 mb 0.04 in1.0 mm 0.12 in3.0 mm 0.44 in11.2 mm
12:20 PM 36.7°F2.6°C 33.5°F0.8°C 88% 3.0 mph NE4.8 kmh NE 9.0 mph14.5 kmh 29.65 in1004.1 mb 0.03 in0.8 mm 0.00 in0.0 mm 0.44 in11.2 mm
12:25 PM 36.7°F2.6°C 33.5°F0.8°C 88% 3.0 mph NE4.8 kmh NE 9.0 mph14.5 kmh 29.65 in1004.1 mb 0.03 in0.8 mm 0.00 in0.0 mm 0.44 in11.2 mm
12:30 PM 36.7°F2.6°C 33.8°F1.0°C 89% 5.0 mph NE8.0 kmh NE -- 29.64 in1003.7 mb 0.03 in0.8 mm 0.00 in0.0 mm 0.44 in11.2 mm
12:35 PM 36.6°F2.6°C 33.4°F0.8°C 88% 3.0 mph NE4.8 kmh NE -- 29.64 in1003.7 mb 0.04 in1.0 mm 0.12 in3.0 mm 0.45 in11.4 mm
12:40 PM 36.6°F2.6°C 33.7°F0.9°C 89% 1.0 mph NE1.6 kmh NE -- 29.63 in1003.4 mb 0.03 in0.8 mm 0.00 in0.0 mm 0.45 in11.4 mm
12:45 PM 36.6°F2.6°C 33.7°F0.9°C 89% Calm Calm -- 29.62 in1003.0 mb 0.03 in0.8 mm 0.00 in0.0 mm 0.45 in11.4 mm
12:50 PM 36.5°F2.5°C 33.6°F0.9°C 89% 1.0 mph NE1.6 kmh NE -- 29.63 in1003.4 mb 0.04 in1.0 mm 0.12 in3.0 mm 0.46 in11.7 mm
12:55 PM 36.4°F2.4°C 33.5°F0.8°C 89% 4.0 mph NNE6.4 kmh NNE -- 29.62 in1003.0 mb 0.03 in0.8 mm 0.00 in0.0 mm 0.46 in11.7 mm
01:00 PM 36.4°F2.4°C 33.5°F0.8°C 89% 2.0 mph NE3.2 kmh NE -- 29.61 in1002.7 mb 0.03 in0.8 mm 0.00 in0.0 mm 0.46 in11.7 mm
01:05 PM 36.2°F2.3°C 33.0°F0.6°C 88% 3.0 mph NE4.8 kmh NE -- 29.61 in1002.7 mb 0.03 in0.8 mm 0.00 in0.0 mm 0.46 in11.7 mm
01:10 PM 36.2°F2.3°C 33.0°F0.6°C 88% 4.0 mph NNE6.4 kmh NNE 14.0 mph22.5 kmh 29.60 in1002.4 mb 0.04 in1.0 mm 0.12 in3.0 mm 0.47 in11.9 mm
01:15 PM 36.1°F2.3°C 33.2°F0.7°C 89% 3.0 mph NE4.8 kmh NE 14.0 mph22.5 kmh 29.60 in1002.4 mb 0.03 in0.8 mm 0.00 in0.0 mm 0.47 in11.9 mm
01:20 PM 36.0°F2.2°C 33.1°F0.6°C 89% 4.0 mph NE6.4 kmh NE -- 29.59 in1002.0 mb 0.03 in0.8 mm 0.00 in0.0 mm 0.47 in11.9 mm
01:25 PM 36.0°F2.2°C 33.1°F0.6°C 89% 11.0 mph NE17.7 kmh NE -- 29.59 in1002.0 mb 0.03 in0.8 mm 0.00 in0.0 mm 0.47 in11.9 mm
01:30 PM 35.9°F2.2°C 33.0°F0.6°C 89% 4.0 mph NE6.4 kmh NE -- 29.58 in1001.7 mb 0.04 in1.0 mm 0.12 in3.0 mm 0.48 in12.2 mm
01:35 PM 35.9°F2.2°C 33.0°F0.6°C 89% 3.0 mph NE4.8 kmh NE -- 29.57 in1001.4 mb 0.03 in0.8 mm 0.00 in0.0 mm 0.48 in12.2 mm
01:40 PM 35.9°F2.2°C 33.0°F0.6°C 89% 4.0 mph NE6.4 kmh NE -- 29.57 in1001.4 mb 0.03 in0.8 mm 0.00 in0.0 mm 0.48 in12.2 mm
01:45 PM 35.9°F2.2°C 33.0°F0.6°C 89% 12.0 mph NE19.3 kmh NE -- 29.57 in1001.4 mb 0.03 in0.8 mm 0.00 in0.0 mm 0.48 in12.2 mm
01:50 PM 35.8°F2.1°C 32.9°F0.5°C 89% 10.0 mph NE16.1 kmh NE -- 29.56 in1001.0 mb 0.02 in0.5 mm 0.00 in0.0 mm 0.48 in12.2 mm
01:55 PM 35.8°F2.1°C 32.9°F0.5°C 89% 9.0 mph NE14.5 kmh NE -- 29.56 in1001.0 mb 0.03 in0.8 mm 0.12 in3.0 mm 0.49 in12.4 mm
02:00 PM 35.8°F2.1°C 32.9°F0.5°C 89% 2.0 mph NE3.2 kmh NE 15.0 mph24.1 kmh 29.56 in1001.0 mb 0.03 in0.8 mm 0.00 in0.0 mm 0.49 in12.4 mm
02:05 PM 35.8°F2.1°C 32.9°F0.5°C 89% 3.0 mph NE4.8 kmh NE 15.0 mph24.1 kmh 29.56 in1001.0 mb 0.03 in0.8 mm 0.00 in0.0 mm 0.49 in12.4 mm
02:10 PM 35.9°F2.2°C 33.0°F0.6°C 89% 7.0 mph NE11.3 kmh NE -- 29.56 in1001.0 mb 0.02 in0.5 mm 0.00 in0.0 mm 0.49 in12.4 mm
02:15 PM 35.9°F2.2°C 33.0°F0.6°C 89% 3.0 mph ENE4.8 kmh ENE -- 29.55 in1000.7 mb 0.03 in0.8 mm 0.12 in3.0 mm 0.50 in12.7 mm
02:20 PM 35.9°F2.2°C 33.0°F0.6°C 89% 7.0 mph ENE11.3 kmh ENE -- 29.55 in1000.7 mb 0.03 in0.8 mm 0.00 in0.0 mm 0.50 in12.7 mm
02:25 PM 35.9°F2.2°C 33.0°F0.6°C 89% 4.0 mph ENE6.4 kmh ENE -- 29.54 in1000.3 mb 0.03 in0.8 mm 0.00 in0.0 mm 0.50 in12.7 mm
02:30 PM 35.9°F2.2°C 33.0°F0.6°C 89% 3.0 mph NE4.8 kmh NE -- 29.54 in1000.3 mb 0.02 in0.5 mm 0.00 in0.0 mm 0.50 in12.7 mm
02:35 PM 35.8°F2.1°C 32.9°F0.5°C 89% 6.0 mph NE9.7 kmh NE -- 29.55 in1000.7 mb 0.02 in0.5 mm 0.00 in0.0 mm 0.50 in12.7 mm
02:40 PM 35.8°F2.1°C 32.9°F0.5°C 89% 1.0 mph E1.6 kmh E -- 29.55 in1000.7 mb 0.03 in0.8 mm 0.12 in3.0 mm 0.51 in13.0 mm
02:45 PM 35.9°F2.2°C 33.0°F0.6°C 89% 1.0 mph ESE1.6 kmh ESE -- 29.55 in1000.7 mb 0.03 in0.8 mm 0.00 in0.0 mm 0.51 in13.0 mm
02:50 PM 35.9°F2.2°C 33.0°F0.6°C 89% 1.0 mph ENE1.6 kmh ENE 8.0 mph12.9 kmh 29.55 in1000.7 mb 0.03 in0.8 mm 0.00 in0.0 mm 0.51 in13.0 mm
02:55 PM 35.9°F2.2°C 33.0°F0.6°C 89% Calm Calm 8.0 mph12.9 kmh 29.55 in1000.7 mb 0.02 in0.5 mm 0.00 in0.0 mm 0.51 in13.0 mm
03:00 PM 35.8°F2.1°C 32.9°F0.5°C 89% 4.0 mph NNE6.4 kmh NNE -- 29.55 in1000.7 mb 0.03 in0.8 mm 0.01 in0.3 mm 0.52 in13.2 mm
03:05 PM 35.8°F2.1°C 32.9°F0.5°C 89% 3.0 mph NE4.8 kmh NE -- 29.56 in1001.0 mb 0.03 in0.8 mm 0.00 in0.0 mm 0.52 in13.2 mm
03:10 PM 35.7°F2.1°C 32.8°F0.4°C 89% 3.0 mph ENE4.8 kmh ENE -- 29.56 in1001.0 mb 0.03 in0.8 mm 0.00 in0.0 mm 0.52 in13.2 mm
03:15 PM 35.7°F2.1°C 32.8°F0.4°C 89% 3.0 mph N4.8 kmh N -- 29.55 in1000.7 mb 0.02 in0.5 mm 0.00 in0.0 mm 0.52 in13.2 mm
03:20 PM 35.6°F2.0°C 32.7°F0.4°C 89% 4.0 mph ENE6.4 kmh ENE -- 29.56 in1001.0 mb 0.03 in0.8 mm 0.12 in3.0 mm 0.53 in13.5 mm
03:25 PM 35.6°F2.0°C 32.7°F0.4°C 89% 3.0 mph NE4.8 kmh NE -- 29.56 in1001.0 mb 0.03 in0.8 mm 0.00 in0.0 mm 0.53 in13.5 mm
03:30 PM 35.6°F2.0°C 32.7°F0.4°C 89% Calm Calm -- 29.57 in1001.4 mb 0.03 in0.8 mm 0.00 in0.0 mm 0.53 in13.5 mm
03:35 PM 35.6°F2.0°C 32.7°F0.4°C 89% 1.0 mph NE1.6 kmh NE -- 29.57 in1001.4 mb 0.03 in0.8 mm 0.00 in0.0 mm 0.53 in13.5 mm
03:40 PM 35.6°F2.0°C 32.7°F0.4°C 89% 4.0 mph NNE6.4 kmh NNE 9.0 mph14.5 kmh 29.57 in1001.4 mb 0.02 in0.5 mm 0.00 in0.0 mm 0.53 in13.5 mm
03:45 PM 35.6°F2.0°C 32.7°F0.4°C 89% 2.0 mph NE3.2 kmh NE 9.0 mph14.5 kmh 29.57 in1001.4 mb 0.03 in0.8 mm 0.12 in3.0 mm 0.54 in13.7 mm
03:50 PM 35.5°F1.9°C 32.6°F0.3°C 89% Calm Calm -- 29.57 in1001.4 mb 0.03 in0.8 mm 0.00 in0.0 mm 0.54 in13.7 mm
03:55 PM 35.5°F1.9°C 32.6°F0.3°C 89% 4.0 mph NE6.4 kmh NE -- 29.57 in1001.4 mb 0.03 in0.8 mm 0.00 in0.0 mm 0.54 in13.7 mm
04:00 PM 35.5°F1.9°C 32.6°F0.3°C 89% Calm Calm -- 29.57 in1001.4 mb 0.02 in0.5 mm 0.00 in0.0 mm 0.54 in13.7 mm
04:05 PM 35.5°F1.9°C 32.6°F0.3°C 89% Calm Calm -- 29.57 in1001.4 mb 0.02 in0.5 mm 0.00 in0.0 mm 0.54 in13.7 mm
04:10 PM 35.5°F1.9°C 32.6°F0.3°C 89% Calm Calm -- 29.57 in1001.4 mb 0.02 in0.5 mm 0.00 in0.0 mm 0.54 in13.7 mm
04:15 PM 35.5°F1.9°C 32.6°F0.3°C 89% Calm Calm -- 29.57 in1001.4 mb 0.03 in0.8 mm 0.12 in3.0 mm 0.55 in14.0 mm
04:20 PM 35.6°F2.0°C 32.7°F0.4°C 89% Calm Calm -- 29.57 in1001.4 mb 0.02 in0.5 mm 0.00 in0.0 mm 0.55 in14.0 mm
04:25 PM 35.5°F1.9°C 32.6°F0.3°C 89% 4.0 mph N6.4 kmh N -- 29.57 in1001.4 mb 0.02 in0.5 mm 0.00 in0.0 mm 0.55 in14.0 mm
04:30 PM 35.6°F2.0°C 32.7°F0.4°C 89% Calm Calm 8.0 mph12.9 kmh 29.57 in1001.4 mb 0.02 in0.5 mm 0.00 in0.0 mm 0.55 in14.0 mm
04:35 PM 35.6°F2.0°C 32.7°F0.4°C 89% Calm Calm 8.0 mph12.9 kmh 29.57 in1001.4 mb 0.02 in0.5 mm 0.00 in0.0 mm 0.55 in14.0 mm
04:40 PM 35.6°F2.0°C 32.7°F0.4°C 89% 3.0 mph NE4.8 kmh NE -- 29.57 in1001.4 mb 0.03 in0.8 mm 0.12 in3.0 mm 0.56 in14.2 mm
04:45 PM 35.5°F1.9°C 32.6°F0.3°C 89% 6.0 mph NE9.7 kmh NE -- 29.57 in1001.4 mb 0.02 in0.5 mm 0.00 in0.0 mm 0.56 in14.2 mm
04:50 PM 35.5°F1.9°C 32.6°F0.3°C 89% Calm Calm -- 29.57 in1001.4 mb 0.02 in0.5 mm 0.00 in0.0 mm 0.56 in14.2 mm
04:55 PM 35.4°F1.9°C 32.5°F0.3°C 89% 12.0 mph N19.3 kmh N -- 29.56 in1001.0 mb 0.02 in0.5 mm 0.00 in0.0 mm 0.56 in14.2 mm
05:00 PM 35.3°F1.8°C 32.4°F0.2°C 89% Calm Calm -- 29.56 in1001.0 mb 0.02 in0.5 mm 0.00 in0.0 mm 0.56 in14.2 mm
05:05 PM 35.2°F1.8°C 32.3°F0.2°C 89% 5.0 mph NE8.0 kmh NE -- 29.57 in1001.4 mb 0.02 in0.5 mm 0.00 in0.0 mm 0.56 in14.2 mm
05:10 PM 35.1°F1.7°C 32.2°F0.1°C 89% 7.0 mph NNE11.3 kmh NNE -- 29.56 in1001.0 mb 0.02 in0.5 mm 0.00 in0.0 mm 0.56 in14.2 mm
05:15 PM 35.0°F1.7°C 32.1°F0.1°C 89% 1.0 mph NNE1.6 kmh NNE -- 29.57 in1001.4 mb 0.01 in0.3 mm 0.00 in0.0 mm 0.56 in14.2 mm
05:20 PM 34.9°F1.6°C 32.0°F0.0°C 89% 2.0 mph NE3.2 kmh NE 12.0 mph19.3 kmh 29.57 in1001.4 mb 0.02 in0.5 mm 0.12 in3.0 mm 0.57 in14.5 mm
05:25 PM 34.8°F1.6°C 31.9°F-0.1°C 89% 4.0 mph N6.4 kmh N 12.0 mph19.3 kmh 29.58 in1001.7 mb 0.02 in0.5 mm 0.00 in0.0 mm 0.57 in14.5 mm
05:30 PM 34.7°F1.5°C 31.8°F-0.1°C 89% 7.0 mph NNE11.3 kmh NNE -- 29.58 in1001.7 mb 0.02 in0.5 mm 0.00 in0.0 mm 0.57 in14.5 mm
05:35 PM 34.5°F1.4°C 31.6°F-0.2°C 89% 6.0 mph NNE9.7 kmh NNE -- 29.58 in1001.7 mb 0.02 in0.5 mm 0.00 in0.0 mm 0.57 in14.5 mm
05:40 PM 34.4°F1.3°C 31.5°F-0.3°C 89% 4.0 mph NE6.4 kmh NE -- 29.58 in1001.7 mb 0.01 in0.3 mm 0.00 in0.0 mm 0.57 in14.5 mm
05:45 PM 34.2°F1.2°C 31.3°F-0.4°C 89% 8.0 mph NE12.9 kmh NE -- 29.58 in1001.7 mb 0.02 in0.5 mm 0.12 in3.0 mm 0.58 in14.7 mm
05:50 PM 34.2°F1.2°C 31.3°F-0.4°C 89% 4.0 mph NE6.4 kmh NE -- 29.58 in1001.7 mb 0.02 in0.5 mm 0.00 in0.0 mm 0.58 in14.7 mm
05:55 PM 34.1°F1.2°C 31.2°F-0.4°C 89% 6.0 mph N9.7 kmh N -- 29.57 in1001.4 mb 0.02 in0.5 mm 0.00 in0.0 mm 0.58 in14.7 mm
06:00 PM 34.1°F1.2°C 31.2°F-0.4°C 89% 4.0 mph NE6.4 kmh NE -- 29.58 in1001.7 mb 0.02 in0.5 mm 0.00 in0.0 mm 0.58 in14.7 mm
06:05 PM 34.0°F1.1°C 31.1°F-0.5°C 89% 11.0 mph N17.7 kmh N -- 29.58 in1001.7 mb 0.02 in0.5 mm 0.00 in0.0 mm 0.58 in14.7 mm
06:10 PM 33.9°F1.1°C 30.7°F-0.7°C 88% 6.0 mph NNW9.7 kmh NNW 14.0 mph22.5 kmh 29.58 in1001.7 mb 0.02 in0.5 mm 0.00 in0.0 mm 0.58 in14.7 mm
06:15 PM 33.8°F1.0°C 30.6°F-0.8°C 88% 7.0 mph NNE11.3 kmh NNE 14.0 mph22.5 kmh 29.58 in1001.7 mb 0.02 in0.5 mm 0.00 in0.0 mm 0.58 in14.7 mm
06:20 PM 33.8°F1.0°C 30.6°F-0.8°C 88% 3.0 mph NE4.8 kmh NE -- 29.58 in1001.7 mb 0.01 in0.3 mm 0.00 in0.0 mm 0.58 in14.7 mm
06:25 PM 33.8°F1.0°C 30.6°F-0.8°C 88% 10.0 mph N16.1 kmh N -- 29.59 in1002.0 mb 0.01 in0.3 mm 0.00 in0.0 mm 0.58 in14.7 mm
06:30 PM 33.6°F0.9°C 30.4°F-0.9°C 88% 12.0 mph NNW19.3 kmh NNW -- 29.59 in1002.0 mb 0.02 in0.5 mm 0.12 in3.0 mm 0.59 in15.0 mm
06:35 PM 33.4°F0.8°C 30.5°F-0.8°C 89% 4.0 mph N6.4 kmh N -- 29.59 in1002.0 mb 0.02 in0.5 mm 0.00 in0.0 mm 0.59 in15.0 mm
06:40 PM 33.3°F0.7°C 30.4°F-0.9°C 89% 5.0 mph N8.0 kmh N -- 29.58 in1001.7 mb 0.02 in0.5 mm 0.00 in0.0 mm 0.59 in15.0 mm
06:45 PM 33.2°F0.7°C 30.3°F-0.9°C 89% 4.0 mph NNW6.4 kmh NNW -- 29.59 in1002.0 mb 0.01 in0.3 mm 0.00 in0.0 mm 0.59 in15.0 mm
06:50 PM 33.1°F0.6°C 29.9°F-1.2°C 88% 2.0 mph N3.2 kmh N -- 29.59 in1002.0 mb 0.01 in0.3 mm 0.00 in0.0 mm 0.59 in15.0 mm
06:55 PM 33.1°F0.6°C 29.9°F-1.2°C 88% 7.0 mph N11.3 kmh N -- 29.59 in1002.0 mb 0.01 in0.3 mm 0.00 in0.0 mm 0.59 in15.0 mm
07:00 PM 33.0°F0.6°C 29.8°F-1.2°C 88% 5.0 mph NE8.0 kmh NE 15.0 mph24.1 kmh 29.59 in1002.0 mb 0.01 in0.3 mm 0.00 in0.0 mm 0.59 in15.0 mm
07:05 PM 33.0°F0.6°C 30.1°F-1.1°C 89% 4.0 mph NE6.4 kmh NE 15.0 mph24.1 kmh 29.59 in1002.0 mb 0.01 in0.3 mm 0.00 in0.0 mm 0.59 in15.0 mm
07:10 PM 32.9°F0.5°C 30.0°F-1.1°C 89% 4.0 mph NE6.4 kmh NE -- 29.58 in1001.7 mb 0.01 in0.3 mm 0.00 in0.0 mm 0.59 in15.0 mm
07:15 PM 32.8°F0.4°C 29.9°F-1.2°C 89% 7.0 mph NNE11.3 kmh NNE -- 29.59 in1002.0 mb 0.01 in0.3 mm 0.00 in0.0 mm 0.59 in15.0 mm
07:20 PM 32.8°F0.4°C 29.9°F-1.2°C 89% 5.0 mph NE8.0 kmh NE -- 29.60 in1002.4 mb 0.01 in0.3 mm 0.00 in0.0 mm 0.59 in15.0 mm
07:25 PM 32.8°F0.4°C 29.9°F-1.2°C 89% 7.0 mph N11.3 kmh N -- 29.61 in1002.7 mb 0.02 in0.5 mm 0.12 in3.0 mm 0.60 in15.2 mm
07:30 PM 32.7°F0.4°C 29.8°F-1.2°C 89% 5.0 mph NE8.0 kmh NE -- 29.61 in1002.7 mb 0.01 in0.3 mm 0.00 in0.0 mm 0.60 in15.2 mm
07:35 PM 32.7°F0.4°C 29.8°F-1.2°C 89% 4.0 mph NNE6.4 kmh NNE -- 29.61 in1002.7 mb 0.01 in0.3 mm 0.00 in0.0 mm 0.60 in15.2 mm
07:40 PM 32.7°F0.4°C 29.8°F-1.2°C 89% 4.0 mph NNW6.4 kmh NNW -- 29.61 in1002.7 mb 0.01 in0.3 mm 0.00 in0.0 mm 0.60 in15.2 mm
07:45 PM 32.6°F0.3°C 29.7°F-1.3°C 89% 7.0 mph NNW11.3 kmh NNW -- 29.61 in1002.7 mb 0.01 in0.3 mm 0.00 in0.0 mm 0.60 in15.2 mm
07:50 PM 32.6°F0.3°C 29.7°F-1.3°C 89% 6.0 mph NNE9.7 kmh NNE 12.0 mph19.3 kmh 29.61 in1002.7 mb 0.01 in0.3 mm 0.00 in0.0 mm 0.60 in15.2 mm
07:55 PM 32.5°F0.3°C 29.6°F-1.3°C 89% 2.0 mph NNE3.2 kmh NNE 12.0 mph19.3 kmh 29.60 in1002.4 mb 0.01 in0.3 mm 0.00 in0.0 mm 0.60 in15.2 mm
08:00 PM 32.5°F0.3°C 29.6°F-1.3°C 89% 5.0 mph NNE8.0 kmh NNE -- 29.59 in1002.0 mb 0.01 in0.3 mm 0.00 in0.0 mm 0.60 in15.2 mm
08:05 PM 32.5°F0.3°C 29.6°F-1.3°C 89% 4.0 mph NE6.4 kmh NE -- 29.59 in1002.0 mb 0.01 in0.3 mm 0.00 in0.0 mm 0.60 in15.2 mm
08:10 PM 32.4°F0.2°C 29.5°F-1.4°C 89% 5.0 mph NNE8.0 kmh NNE -- 29.60 in1002.4 mb 0.01 in0.3 mm 0.00 in0.0 mm 0.60 in15.2 mm
08:15 PM 32.4°F0.2°C 29.5°F-1.4°C 89% 8.0 mph NE12.9 kmh NE -- 29.59 in1002.0 mb 0.01 in0.3 mm 0.00 in0.0 mm 0.60 in15.2 mm
08:20 PM 32.3°F0.2°C 29.4°F-1.4°C 89% 6.0 mph NNE9.7 kmh NNE -- 29.59 in1002.0 mb 0.01 in0.3 mm 0.00 in0.0 mm 0.60 in15.2 mm
08:25 PM 32.3°F0.2°C 29.4°F-1.4°C 89% 9.0 mph NNE14.5 kmh NNE -- 29.59 in1002.0 mb 0.00 in0.0 mm 0.00 in0.0 mm 0.60 in15.2 mm
08:30 PM 32.3°F0.2°C 29.4°F-1.4°C 89% 7.0 mph NE11.3 kmh NE -- 29.59 in1002.0 mb 0.00 in0.0 mm 0.00 in0.0 mm 0.60 in15.2 mm
08:35 PM 32.3°F0.2°C 29.4°F-1.4°C 89% 5.0 mph NW8.0 kmh NW -- 29.59 in1002.0 mb 0.00 in0.0 mm 0.00 in0.0 mm 0.60 in15.2 mm
08:40 PM 32.2°F0.1°C 29.3°F-1.5°C 89% 2.0 mph NE3.2 kmh NE 14.0 mph22.5 kmh 29.58 in1001.7 mb 0.00 in0.0 mm 0.00 in0.0 mm 0.60 in15.2 mm
08:45 PM 32.2°F0.1°C 29.3°F-1.5°C 89% 4.0 mph NE6.4 kmh NE 14.0 mph22.5 kmh 29.57 in1001.4 mb 0.00 in0.0 mm 0.00 in0.0 mm 0.60 in15.2 mm
08:50 PM 32.1°F0.1°C 29.2°F-1.6°C 89% 4.0 mph ENE6.4 kmh ENE -- 29.57 in1001.4 mb 0.00 in0.0 mm 0.00 in0.0 mm 0.60 in15.2 mm
08:55 PM 32.1°F0.1°C 29.2°F-1.6°C 89% 5.0 mph NE8.0 kmh NE -- 29.57 in1001.4 mb 0.00 in0.0 mm 0.00 in0.0 mm 0.60 in15.2 mm
09:00 PM 32.1°F0.1°C 29.2°F-1.6°C 89% 4.0 mph NE6.4 kmh NE -- 29.57 in1001.4 mb 0.00 in0.0 mm 0.00 in0.0 mm 0.60 in15.2 mm
09:05 PM 32.1°F0.1°C 29.2°F-1.6°C 89% 7.0 mph NE11.3 kmh NE -- 29.57 in1001.4 mb 0.00 in0.0 mm 0.00 in0.0 mm 0.60 in15.2 mm
09:10 PM 32.0°F0.0°C 29.1°F-1.6°C 89% 5.0 mph N8.0 kmh N -- 29.57 in1001.4 mb 0.00 in0.0 mm 0.00 in0.0 mm 0.60 in15.2 mm
09:15 PM 32.0°F0.0°C 29.1°F-1.6°C 89% 6.0 mph NE9.7 kmh NE -- 29.57 in1001.4 mb 0.00 in0.0 mm 0.00 in0.0 mm 0.60 in15.2 mm
09:20 PM 32.0°F0.0°C 30.7°F-0.7°C 95% 12.0 mph N19.3 kmh N -- 29.56 in1001.0 mb 0.00 in0.0 mm 0.00 in0.0 mm 0.60 in15.2 mm
09:25 PM 32.0°F0.0°C 29.1°F-1.6°C 89% 4.0 mph N6.4 kmh N -- 29.56 in1001.0 mb 0.00 in0.0 mm 0.00 in0.0 mm 0.60 in15.2 mm
09:30 PM 32.0°F0.0°C 29.1°F-1.6°C 89% 5.0 mph NE8.0 kmh NE 16.0 mph25.7 kmh 29.55 in1000.7 mb 0.00 in0.0 mm 0.00 in0.0 mm 0.60 in15.2 mm
09:35 PM 31.9°F-0.1°C 29.0°F-1.7°C 89% 5.0 mph NE8.0 kmh NE 16.0 mph25.7 kmh 29.55 in1000.7 mb 0.00 in0.0 mm 0.00 in0.0 mm 0.60 in15.2 mm
09:40 PM 31.9°F-0.1°C 29.0°F-1.7°C 89% 5.0 mph N8.0 kmh N -- 29.55 in1000.7 mb 0.00 in0.0 mm 0.00 in0.0 mm 0.60 in15.2 mm
09:45 PM 31.8°F-0.1°C 28.9°F-1.7°C 89% 5.0 mph NW8.0 kmh NW -- 29.56 in1001.0 mb 0.00 in0.0 mm 0.00 in0.0 mm 0.60 in15.2 mm
09:50 PM 31.8°F-0.1°C 28.9°F-1.7°C 89% 4.0 mph NNE6.4 kmh NNE -- 29.56 in1001.0 mb 0.00 in0.0 mm 0.00 in0.0 mm 0.60 in15.2 mm
09:55 PM 31.7°F-0.2°C 28.8°F-1.8°C 89% 2.0 mph NE3.2 kmh NE -- 29.57 in1001.4 mb 0.00 in0.0 mm 0.00 in0.0 mm 0.60 in15.2 mm
10:00 PM 31.7°F-0.2°C 28.8°F-1.8°C 89% 3.0 mph N4.8 kmh N -- 29.57 in1001.4 mb 0.00 in0.0 mm 0.00 in0.0 mm 0.60 in15.2 mm
10:05 PM 31.7°F-0.2°C 28.8°F-1.8°C 89% 4.0 mph NNE6.4 kmh NNE -- 29.57 in1001.4 mb 0.00 in0.0 mm 0.00 in0.0 mm 0.60 in15.2 mm
10:10 PM 31.7°F-0.2°C 28.8°F-1.8°C 89% 6.0 mph NE9.7 kmh NE -- 29.58 in1001.7 mb 0.00 in0.0 mm 0.00 in0.0 mm 0.60 in15.2 mm
10:15 PM 31.6°F-0.2°C 28.7°F-1.8°C 89% Calm Calm -- 29.59 in1002.0 mb 0.00 in0.0 mm 0.00 in0.0 mm 0.60 in15.2 mm
10:20 PM 31.6°F-0.2°C 28.7°F-1.8°C 89% 4.0 mph N6.4 kmh N 9.0 mph14.5 kmh 29.59 in1002.0 mb 0.00 in0.0 mm 0.00 in0.0 mm 0.60 in15.2 mm
10:25 PM 31.5°F-0.3°C 28.6°F-1.9°C 89% 5.0 mph N8.0 kmh N 9.0 mph14.5 kmh 29.60 in1002.4 mb 0.00 in0.0 mm 0.00 in0.0 mm 0.60 in15.2 mm
10:30 PM 31.4°F-0.3°C 28.5°F-1.9°C 89% 4.0 mph NNW6.4 kmh NNW -- 29.60 in1002.4 mb 0.00 in0.0 mm 0.00 in0.0 mm 0.60 in15.2 mm
10:35 PM 31.4°F-0.3°C 28.5°F-1.9°C 89% 4.0 mph N6.4 kmh N -- 29.60 in1002.4 mb 0.00 in0.0 mm 0.00 in0.0 mm 0.60 in15.2 mm
10:40 PM 31.3°F-0.4°C 28.4°F-2.0°C 89% 5.0 mph NNE8.0 kmh NNE -- 29.60 in1002.4 mb 0.00 in0.0 mm 0.00 in0.0 mm 0.60 in15.2 mm
10:45 PM 31.2°F-0.4°C 28.3°F-2.1°C 89% 2.0 mph NW3.2 kmh NW -- 29.61 in1002.7 mb 0.00 in0.0 mm 0.00 in0.0 mm 0.60 in15.2 mm
10:50 PM 31.2°F-0.4°C 28.3°F-2.1°C 89% 5.0 mph W8.0 kmh W -- 29.62 in1003.0 mb 0.00 in0.0 mm 0.00 in0.0 mm 0.60 in15.2 mm
10:55 PM 31.2°F-0.4°C 28.3°F-2.1°C 89% 2.0 mph N3.2 kmh N -- 29.62 in1003.0 mb 0.00 in0.0 mm 0.00 in0.0 mm 0.60 in15.2 mm
11:00 PM 31.1°F-0.5°C 28.2°F-2.1°C 89% 5.0 mph NNW8.0 kmh NNW -- 29.62 in1003.0 mb 0.00 in0.0 mm 0.00 in0.0 mm 0.60 in15.2 mm
11:05 PM 31.1°F-0.5°C 28.2°F-2.1°C 89% 4.0 mph NW6.4 kmh NW -- 29.62 in1003.0 mb 0.00 in0.0 mm 0.00 in0.0 mm 0.60 in15.2 mm
11:10 PM 31.1°F-0.5°C 28.2°F-2.1°C 89% 3.0 mph NNW4.8 kmh NNW 7.0 mph11.3 kmh 29.62 in1003.0 mb 0.00 in0.0 mm 0.00 in0.0 mm 0.60 in15.2 mm
11:15 PM 31.0°F-0.6°C 28.1°F-2.2°C 89% 8.0 mph NNW12.9 kmh NNW 7.0 mph11.3 kmh 29.61 in1002.7 mb 0.00 in0.0 mm 0.00 in0.0 mm 0.60 in15.2 mm
11:20 PM 30.9°F-0.6°C 28.0°F-2.2°C 89% 6.0 mph NW9.7 kmh NW -- 29.61 in1002.7 mb 0.00 in0.0 mm 0.00 in0.0 mm 0.60 in15.2 mm
11:25 PM 30.8°F-0.7°C 27.9°F-2.3°C 89% 6.0 mph NW9.7 kmh NW -- 29.61 in1002.7 mb 0.00 in0.0 mm 0.00 in0.0 mm 0.60 in15.2 mm
11:30 PM 30.8°F-0.7°C 27.9°F-2.3°C 89% 2.0 mph N3.2 kmh N -- 29.61 in1002.7 mb 0.00 in0.0 mm 0.00 in0.0 mm 0.60 in15.2 mm
11:35 PM 30.7°F-0.7°C 27.8°F-2.3°C 89% 5.0 mph NNW8.0 kmh NNW -- 29.62 in1003.0 mb 0.00 in0.0 mm 0.00 in0.0 mm 0.60 in15.2 mm
11:40 PM 30.7°F-0.7°C 27.8°F-2.3°C 89% 7.0 mph N11.3 kmh N -- 29.61 in1002.7 mb 0.00 in0.0 mm 0.00 in0.0 mm 0.60 in15.2 mm
11:45 PM 30.7°F-0.7°C 27.8°F-2.3°C 89% 6.0 mph N9.7 kmh N -- 29.62 in1003.0 mb 0.00 in0.0 mm 0.00 in0.0 mm 0.60 in15.2 mm
11:50 PM 30.6°F-0.8°C 27.8°F-2.3°C 89% 7.0 mph NW11.3 kmh NW -- 29.62 in1003.0 mb 0.00 in0.0 mm 0.00 in0.0 mm 0.60 in15.2 mm
11:55 PM 30.6°F-0.8°C 27.8°F-2.3°C 89% 3.0 mph NNW4.8 kmh NNW -- 29.61 in1002.7 mb 0.00 in0.0 mm 0.00 in0.0 mm 0.60 in15.2 mm